»·PEaware :: N1SC KSAN-KSMO

N1SC :: KSAN-KSMO

FLIGHT INFORMATION

Flight Status: Arrived
Operator: Privately registered:
United States
More flights under this callsign
Pilot: Chris C. (10181)
Aircraft: PIPER PA-28 CHEROKEE ARCHER
(P28A)
More flights by this aircraft type
Origin: KSAN San Diego Intl-Lindbergh
United States
Destination: KSMO Santa Monica Mun
United States
More flights between these airports :: More routes between these airports
Route: OCN V23 DANAH V363 BAYJY V186 DARTS
File this flight plan on PilotEdge
Remarks: TEC ROUTE SANN9
Altitude:
(Current/Filed)
6,000ft
Speed:
(Current/Filed)
120kts
Departed: 21-Feb-18 09:36 AM
Arrived: 21-Feb-18 10:40 AM
Distance/Time
Traveled:
100nm/1:03
Distance/Time
To Go:
Arrived

Flight Plot

Page will automatically refresh every two minutes.

Flight plan parsing failed; only flown route is shown


Map Options




Map Legend


Flown Route
Filed Route
Departure Airport
Arrival Airport
Navaid (VOR, NDB)
Fix

Horizontal Profiles

Position Reports

Time Latitude Longitude Heading Altitude Ground
Speed
21-Feb-18 09:36 32.732439 -117.177166 15 18ft 0kts
21-Feb-18 09:37 32.732440 -117.177165 15 18ft 0kts
21-Feb-18 09:38 32.732441 -117.177165 15 18ft 0kts
21-Feb-18 09:39 32.732443 -117.177164 15 18ft 0kts
21-Feb-18 09:40 32.732444 -117.177164 15 18ft 0kts
21-Feb-18 09:41 32.731336 -117.175700 128 18ft 12kts
21-Feb-18 09:42 32.730902 -117.175280 166 18ft 0kts
21-Feb-18 09:43 32.730505 -117.177170 284 18ft 45kts
21-Feb-18 09:44 32.739146 -117.201732 319 777ft 89kts
21-Feb-18 09:45 32.758190 -117.218512 324 1780ft 84kts
21-Feb-18 09:46 32.776809 -117.234416 321 2715ft 81kts
21-Feb-18 09:47 32.795323 -117.248403 331 3616ft 78kts
21-Feb-18 09:48 32.814796 -117.259784 310 4434ft 77kts
21-Feb-18 09:49 32.832127 -117.277901 335 5132ft 88kts
21-Feb-18 09:50 32.855373 -117.287705 336 5845ft 91kts
21-Feb-18 09:51 32.883258 -117.298983 335 6035ft 119kts
21-Feb-18 09:52 32.914943 -117.313944 332 5911ft 118kts
21-Feb-18 09:53 32.945297 -117.324958 354 5961ft 116kts
21-Feb-18 09:54 32.976787 -117.330020 337 6002ft 114kts
21-Feb-18 09:55 33.006033 -117.345751 330 6014ft 118kts
21-Feb-18 09:56 33.037422 -117.359582 341 6004ft 121kts
21-Feb-18 09:57 33.070668 -117.367941 345 6003ft 122kts
21-Feb-18 09:58 33.103940 -117.376561 342 6001ft 121kts
21-Feb-18 09:59 33.136671 -117.386675 341 6007ft 121kts
21-Feb-18 10:00 33.169615 -117.396521 342 6007ft 121kts
21-Feb-18 10:01 33.202486 -117.406290 342 6009ft 121kts
21-Feb-18 10:02 33.235181 -117.416680 341 6013ft 121kts
21-Feb-18 10:03 33.263031 -117.436889 311 6014ft 119kts
21-Feb-18 10:04 33.286485 -117.465201 311 6018ft 120kts
21-Feb-18 10:05 33.307949 -117.495645 311 6018ft 120kts
21-Feb-18 10:06 33.331905 -117.523698 315 6017ft 120kts
21-Feb-18 10:07 33.356636 -117.550667 314 6016ft 120kts
21-Feb-18 10:08 33.380846 -117.577325 314 5997ft 116kts
21-Feb-18 10:09 33.403945 -117.602536 314 5906ft 110kts
21-Feb-18 10:10 33.427242 -117.628273 314 5809ft 114kts
21-Feb-18 10:11 33.450769 -117.651890 314 6067ft 108kts
21-Feb-18 10:12 33.473250 -117.679685 312 6026ft 117kts
21-Feb-18 10:13 33.496679 -117.707568 313 5986ft 118kts
21-Feb-18 10:14 33.528937 -117.715631 350 5985ft 119kts
21-Feb-18 10:15 33.562560 -117.716097 356 5997ft 122kts
21-Feb-18 10:16 33.596799 -117.716354 349 6001ft 123kts
21-Feb-18 10:17 33.630658 -117.723209 345 5999ft 123kts
21-Feb-18 10:18 33.663218 -117.733247 343 5999ft 122kts
21-Feb-18 10:19 33.696850 -117.743803 342 5998ft 123kts
21-Feb-18 10:20 33.729932 -117.754720 337 6018ft 124kts
21-Feb-18 10:21 33.762114 -117.769475 336 6026ft 125kts
21-Feb-18 10:22 33.795106 -117.784085 338 6034ft 127kts
21-Feb-18 10:23 33.828011 -117.797678 342 6015ft 124kts
21-Feb-18 10:24 33.862881 -117.800931 2 6092ft 129kts
21-Feb-18 10:25 33.898536 -117.794730 3 6183ft 129kts
21-Feb-18 10:26 33.934071 -117.791503 1 6107ft 127kts
21-Feb-18 10:27 33.969194 -117.791691 1 6011ft 125kts
21-Feb-18 10:28 33.992393 -117.815649 291 5978ft 122kts
21-Feb-18 10:29 34.004594 -117.853597 289 5982ft 121kts
21-Feb-18 10:30 34.017306 -117.891208 293 5982ft 121kts
21-Feb-18 10:31 34.029809 -117.930387 290 6045ft 129kts
21-Feb-18 10:32 34.042960 -117.970752 291 6107ft 130kts
21-Feb-18 10:33 34.055659 -118.011029 289 6111ft 127kts
21-Feb-18 10:34 34.068019 -118.049902 290 6058ft 126kts
21-Feb-18 10:35 34.081188 -118.090175 288 6094ft 130kts
21-Feb-18 10:36 34.093973 -118.130205 291 5845ft 126kts
21-Feb-18 10:37 34.107363 -118.169334 285 5208ft 130kts
21-Feb-18 10:38 34.119381 -118.211069 280 4682ft 132kts
21-Feb-18 10:39 34.131139 -118.252943 290 4350ft 129kts
21-Feb-18 10:40 34.141334 -118.290870 238 4408ft 125kts
21-Feb-18 10:41 34.117412 -118.317472 214 3496ft 117kts
21-Feb-18 10:42 34.097873 -118.346985 224 2741ft 112kts
21-Feb-18 10:43 34.078769 -118.369124 214 2221ft 116kts
21-Feb-18 10:44 34.054757 -118.398966 227 1500ft 92kts
21-Feb-18 10:45 34.043287 -118.418575 221 1319ft 86kts
21-Feb-18 10:46 34.025483 -118.439926 214 458ft 72kts
21-Feb-18 10:47 34.016731 -118.449675 211 178ft 0kts
21-Feb-18 10:48 34.016730 -118.449676 211 178ft 0kts

Navigation Log

Ident Type
Flight plan parsing failed, navigation log unavailable